sensor_id;sensor_type;location;lat;lon;timestamp;pressure;altitude;pressure_sealevel;temperature;humidity
23899;BME280;20544;50.018;20.010;2023-05-07T00:00:37;98905.75;;;11.94;100.00
23899;BME280;20544;50.018;20.010;2023-05-07T00:03:55;98902.58;;;11.84;100.00
23899;BME280;20544;50.018;20.010;2023-05-07T00:07:13;98911.65;;;11.75;100.00
23899;BME280;20544;50.018;20.010;2023-05-07T00:10:30;98905.63;;;11.66;100.00
23899;BME280;20544;50.018;20.010;2023-05-07T00:13:47;98911.58;;;11.68;100.00
23899;BME280;20544;50.018;20.010;2023-05-07T00:17:04;98906.55;;;11.58;100.00
23899;BME280;20544;50.018;20.010;2023-05-07T00:20:20;98914.06;;;11.55;100.00
23899;BME280;20544;50.018;20.010;2023-05-07T00:23:36;98909.88;;;11.45;100.00
23899;BME280;20544;50.018;20.010;2023-05-07T00:26:53;98910.96;;;11.36;100.00
23899;BME280;20544;50.018;20.010;2023-05-07T00:30:11;98911.07;;;11.43;100.00
23899;BME280;20544;50.018;20.010;2023-05-07T00:33:28;98918.92;;;11.36;100.00
23899;BME280;20544;50.018;20.010;2023-05-07T00:36:44;98916.65;;;11.18;100.00
23899;BME280;20544;50.018;20.010;2023-05-07T00:40:01;98918.19;;;11.12;100.00
23899;BME280;20544;50.018;20.010;2023-05-07T00:43:19;98918.91;;;11.06;100.00
23899;BME280;20544;50.018;20.010;2023-05-07T00:46:36;98920.56;;;11.07;100.00
23899;BME280;20544;50.018;20.010;2023-05-07T00:49:54;98938.22;;;11.00;100.00
23899;BME280;20544;50.018;20.010;2023-05-07T00:53:11;98930.91;;;11.02;100.00
23899;BME280;20544;50.018;20.010;2023-05-07T00:56:28;98931.25;;;10.99;100.00
23899;BME280;20544;50.018;20.010;2023-05-07T00:59:45;98927.79;;;10.98;100.00
23899;BME280;20544;50.018;20.010;2023-05-07T01:03:01;98933.00;;;10.92;100.00
23899;BME280;20544;50.018;20.010;2023-05-07T01:06:18;98928.23;;;10.87;100.00
23899;BME280;20544;50.018;20.010;2023-05-07T01:09:38;98928.05;;;10.89;100.00
23899;BME280;20544;50.018;20.010;2023-05-07T01:12:56;98936.09;;;10.80;100.00
23899;BME280;20544;50.018;20.010;2023-05-07T01:16:14;98932.60;;;10.80;100.00
23899;BME280;20544;50.018;20.010;2023-05-07T01:19:31;98942.41;;;10.79;100.00
23899;BME280;20544;50.018;20.010;2023-05-07T01:22:48;98932.69;;;10.72;100.00
23899;BME280;20544;50.018;20.010;2023-05-07T01:26:05;98932.22;;;10.68;100.00
23899;BME280;20544;50.018;20.010;2023-05-07T01:29:23;98930.20;;;10.70;100.00
23899;BME280;20544;50.018;20.010;2023-05-07T01:32:43;98932.56;;;10.65;100.00
23899;BME280;20544;50.018;20.010;2023-05-07T01:36:06;98935.30;;;10.57;100.00
23899;BME280;20544;50.018;20.010;2023-05-07T01:39:24;98938.29;;;10.54;100.00
23899;BME280;20544;50.018;20.010;2023-05-07T01:42:44;98944.88;;;10.58;100.00
23899;BME280;20544;50.018;20.010;2023-05-07T01:46:03;98945.72;;;10.58;100.00
23899;BME280;20544;50.018;20.010;2023-05-07T01:49:20;98949.38;;;10.57;100.00
23899;BME280;20544;50.018;20.010;2023-05-07T01:52:37;98947.43;;;10.51;100.00
23899;BME280;20544;50.018;20.010;2023-05-07T01:55:54;98946.95;;;10.47;100.00
23899;BME280;20544;50.018;20.010;2023-05-07T01:59:11;98950.51;;;10.31;100.00
23899;BME280;20544;50.018;20.010;2023-05-07T02:02:27;98951.35;;;10.32;100.00
23899;BME280;20544;50.018;20.010;2023-05-07T02:05:44;98952.87;;;10.26;100.00
23899;BME280;20544;50.018;20.010;2023-05-07T02:09:05;98952.69;;;10.28;100.00
23899;BME280;20544;50.018;20.010;2023-05-07T02:12:28;98952.53;;;10.29;100.00
23899;BME280;20544;50.018;20.010;2023-05-07T02:15:44;98952.20;;;10.24;100.00
23899;BME280;20544;50.018;20.010;2023-05-07T02:19:01;98948.38;;;10.27;100.00
23899;BME280;20544;50.018;20.010;2023-05-07T02:22:17;98945.62;;;10.20;100.00
23899;BME280;20544;50.018;20.010;2023-05-07T02:25:34;98954.74;;;10.17;100.00
23899;BME280;20544;50.018;20.010;2023-05-07T02:28:51;98953.94;;;10.17;100.00
23899;BME280;20544;50.018;20.010;2023-05-07T02:32:08;98962.03;;;10.15;100.00
23899;BME280;20544;50.018;20.010;2023-05-07T02:35:25;98970.23;;;10.06;100.00
23899;BME280;20544;50.018;20.010;2023-05-07T02:38:42;98964.56;;;10.09;100.00
23899;BME280;20544;50.018;20.010;2023-05-07T02:41:58;98959.15;;;10.02;100.00
23899;BME280;20544;50.018;20.010;2023-05-07T02:45:16;98967.09;;;10.02;100.00
23899;BME280;20544;50.018;20.010;2023-05-07T02:48:36;98966.47;;;9.92;100.00
23899;BME280;20544;50.018;20.010;2023-05-07T02:51:52;98971.25;;;9.96;100.00
23899;BME280;20544;50.018;20.010;2023-05-07T02:55:10;98969.09;;;10.00;100.00
23899;BME280;20544;50.018;20.010;2023-05-07T02:58:27;98973.09;;;9.96;100.00
23899;BME280;20544;50.018;20.010;2023-05-07T03:01:45;98981.67;;;9.98;100.00
23899;BME280;20544;50.018;20.010;2023-05-07T03:05:01;98977.22;;;9.98;100.00
23899;BME280;20544;50.018;20.010;2023-05-07T03:08:19;98983.84;;;9.94;100.00
23899;BME280;20544;50.018;20.010;2023-05-07T03:11:37;98987.23;;;9.80;100.00
23899;BME280;20544;50.018;20.010;2023-05-07T03:14:53;98992.66;;;9.86;100.00
23899;BME280;20544;50.018;20.010;2023-05-07T03:18:10;98989.70;;;9.81;100.00
23899;BME280;20544;50.018;20.010;2023-05-07T03:21:27;98986.39;;;9.79;100.00
23899;BME280;20544;50.018;20.010;2023-05-07T03:24:43;98996.98;;;9.79;100.00
23899;BME280;20544;50.018;20.010;2023-05-07T03:28:00;99001.95;;;9.82;100.00
23899;BME280;20544;50.018;20.010;2023-05-07T03:31:18;99003.61;;;9.83;100.00
23899;BME280;20544;50.018;20.010;2023-05-07T03:34:34;99008.38;;;9.88;100.00
23899;BME280;20544;50.018;20.010;2023-05-07T03:37:51;99012.19;;;9.85;100.00
23899;BME280;20544;50.018;20.010;2023-05-07T03:41:10;99015.02;;;9.84;100.00
23899;BME280;20544;50.018;20.010;2023-05-07T03:44:27;99018.17;;;9.79;100.00
23899;BME280;20544;50.018;20.010;2023-05-07T03:47:46;99022.84;;;9.77;100.00
23899;BME280;20544;50.018;20.010;2023-05-07T03:51:03;99029.13;;;9.76;100.00
23899;BME280;20544;50.018;20.010;2023-05-07T03:54:19;99030.63;;;9.70;100.00
23899;BME280;20544;50.018;20.010;2023-05-07T03:57:38;99033.13;;;9.64;100.00
23899;BME280;20544;50.018;20.010;2023-05-07T04:00:54;99035.16;;;9.53;100.00
23899;BME280;20544;50.018;20.010;2023-05-07T04:04:11;99037.48;;;9.48;100.00
23899;BME280;20544;50.018;20.010;2023-05-07T04:07:28;99040.95;;;9.49;100.00
23899;BME280;20544;50.018;20.010;2023-05-07T04:10:45;99044.09;;;9.52;100.00
23899;BME280;20544;50.018;20.010;2023-05-07T04:14:02;99045.74;;;9.53;100.00
23899;BME280;20544;50.018;20.010;2023-05-07T04:17:18;99055.00;;;9.49;100.00
23899;BME280;20544;50.018;20.010;2023-05-07T04:20:36;99060.30;;;9.49;100.00
23899;BME280;20544;50.018;20.010;2023-05-07T04:23:53;99058.98;;;9.45;100.00
23899;BME280;20544;50.018;20.010;2023-05-07T04:27:10;99056.02;;;9.40;100.00
23899;BME280;20544;50.018;20.010;2023-05-07T04:30:27;99065.80;;;9.39;100.00
23899;BME280;20544;50.018;20.010;2023-05-07T04:33:44;99063.64;;;9.35;100.00
23899;BME280;20544;50.018;20.010;2023-05-07T04:37:02;99075.22;;;9.42;100.00
23899;BME280;20544;50.018;20.010;2023-05-07T04:40:18;99081.00;;;9.37;100.00
23899;BME280;20544;50.018;20.010;2023-05-07T04:43:35;99085.45;;;9.37;100.00
23899;BME280;20544;50.018;20.010;2023-05-07T04:46:53;99083.83;;;9.36;100.00
23899;BME280;20544;50.018;20.010;2023-05-07T04:50:10;99092.09;;;9.33;100.00
23899;BME280;20544;50.018;20.010;2023-05-07T04:53:27;99091.91;;;9.34;100.00
23899;BME280;20544;50.018;20.010;2023-05-07T04:56:43;99099.36;;;9.31;100.00
23899;BME280;20544;50.018;20.010;2023-05-07T05:00:00;99094.91;;;9.31;100.00
23899;BME280;20544;50.018;20.010;2023-05-07T05:03:19;99108.31;;;9.30;100.00
23899;BME280;20544;50.018;20.010;2023-05-07T05:06:35;99106.83;;;9.27;100.00
23899;BME280;20544;50.018;20.010;2023-05-07T05:09:53;99107.31;;;9.22;100.00
23899;BME280;20544;50.018;20.010;2023-05-07T05:13:12;99106.00;;;9.18;100.00
23899;BME280;20544;50.018;20.010;2023-05-07T05:16:31;99112.59;;;9.14;100.00
23899;BME280;20544;50.018;20.010;2023-05-07T05:19:48;99117.24;;;9.12;100.00
23899;BME280;20544;50.018;20.010;2023-05-07T05:23:05;99128.64;;;9.13;100.00
23899;BME280;20544;50.018;20.010;2023-05-07T05:26:21;99124.34;;;9.03;100.00
23899;BME280;20544;50.018;20.010;2023-05-07T05:29:38;99131.13;;;9.06;100.00
23899;BME280;20544;50.018;20.010;2023-05-07T05:32:56;99135.57;;;9.05;100.00
23899;BME280;20544;50.018;20.010;2023-05-07T05:36:13;99136.56;;;9.04;100.00
23899;BME280;20544;50.018;20.010;2023-05-07T05:39:30;99146.16;;;9.05;100.00
23899;BME280;20544;50.018;20.010;2023-05-07T05:42:47;99145.52;;;9.03;100.00
23899;BME280;20544;50.018;20.010;2023-05-07T05:46:06;99154.44;;;9.02;100.00
23899;BME280;20544;50.018;20.010;2023-05-07T05:49:24;99161.87;;;8.99;100.00
23899;BME280;20544;50.018;20.010;2023-05-07T05:52:41;99162.85;;;8.98;100.00
23899;BME280;20544;50.018;20.010;2023-05-07T05:55:58;99160.17;;;8.89;100.00
23899;BME280;20544;50.018;20.010;2023-05-07T05:59:16;99171.73;;;8.80;100.00
23899;BME280;20544;50.018;20.010;2023-05-07T06:02:34;99169.73;;;8.74;100.00
23899;BME280;20544;50.018;20.010;2023-05-07T06:05:51;99174.98;;;8.66;100.00
23899;BME280;20544;50.018;20.010;2023-05-07T06:09:09;99182.92;;;8.66;100.00
23899;BME280;20544;50.018;20.010;2023-05-07T06:12:27;99187.69;;;8.62;100.00
23899;BME280;20544;50.018;20.010;2023-05-07T06:15:44;99193.77;;;8.46;100.00
23899;BME280;20544;50.018;20.010;2023-05-07T06:19:02;99198.55;;;8.51;100.00
23899;BME280;20544;50.018;20.010;2023-05-07T06:22:20;99193.43;;;8.49;100.00
23899;BME280;20544;50.018;20.010;2023-05-07T06:25:37;99193.87;;;8.45;100.00
23899;BME280;20544;50.018;20.010;2023-05-07T06:28:53;99207.25;;;8.43;100.00
23899;BME280;20544;50.018;20.010;2023-05-07T06:32:10;99202.13;;;8.41;100.00
23899;BME280;20544;50.018;20.010;2023-05-07T06:35:29;99195.99;;;8.41;100.00
23899;BME280;20544;50.018;20.010;2023-05-07T06:38:47;99197.36;;;8.45;100.00
23899;BME280;20544;50.018;20.010;2023-05-07T06:42:04;99203.63;;;8.44;100.00
23899;BME280;20544;50.018;20.010;2023-05-07T06:45:22;99201.69;;;8.46;100.00
23899;BME280;20544;50.018;20.010;2023-05-07T06:48:40;99209.73;;;8.45;100.00
23899;BME280;20544;50.018;20.010;2023-05-07T06:51:56;99208.61;;;8.47;100.00
23899;BME280;20544;50.018;20.010;2023-05-07T06:55:13;99211.94;;;8.49;100.00
23899;BME280;20544;50.018;20.010;2023-05-07T06:58:30;99208.31;;;8.50;100.00
23899;BME280;20544;50.018;20.010;2023-05-07T07:01:48;99211.13;;;8.49;100.00
23899;BME280;20544;50.018;20.010;2023-05-07T07:05:08;99217.39;;;8.48;100.00
23899;BME280;20544;50.018;20.010;2023-05-07T07:08:25;99221.53;;;8.50;100.00
23899;BME280;20544;50.018;20.010;2023-05-07T07:11:47;99226.82;;;8.50;100.00
23899;BME280;20544;50.018;20.010;2023-05-07T07:15:02;99227.12;;;8.47;100.00
23899;BME280;20544;50.018;20.010;2023-05-07T07:18:21;99236.88;;;8.47;100.00
23899;BME280;20544;50.018;20.010;2023-05-07T07:21:44;99245.48;;;8.49;100.00
23899;BME280;20544;50.018;20.010;2023-05-07T07:25:01;99245.63;;;8.47;100.00
23899;BME280;20544;50.018;20.010;2023-05-07T07:28:20;99251.13;;;8.54;100.00
23899;BME280;20544;50.018;20.010;2023-05-07T07:31:36;99249.28;;;8.46;100.00
23899;BME280;20544;50.018;20.010;2023-05-07T07:34:53;99252.11;;;8.53;100.00
23899;BME280;20544;50.018;20.010;2023-05-07T07:38:11;99268.14;;;8.51;100.00
23899;BME280;20544;50.018;20.010;2023-05-07T07:41:27;99269.94;;;8.51;100.00
23899;BME280;20544;50.018;20.010;2023-05-07T07:44:44;99274.31;;;8.42;100.00
23899;BME280;20544;50.018;20.010;2023-05-07T07:48:02;99278.36;;;8.46;100.00
23899;BME280;20544;50.018;20.010;2023-05-07T07:51:19;99277.94;;;8.41;100.00
23899;BME280;20544;50.018;20.010;2023-05-07T07:54:36;99284.30;;;8.48;100.00
23899;BME280;20544;50.018;20.010;2023-05-07T07:57:53;99279.70;;;8.50;100.00
23899;BME280;20544;50.018;20.010;2023-05-07T08:01:10;99288.44;;;8.51;100.00
23899;BME280;20544;50.018;20.010;2023-05-07T08:04:32;99284.30;;;8.48;100.00
23899;BME280;20544;50.018;20.010;2023-05-07T08:07:49;99294.58;;;8.51;100.00
23899;BME280;20544;50.018;20.010;2023-05-07T08:11:07;99293.30;;;8.37;100.00
23899;BME280;20544;50.018;20.010;2023-05-07T08:14:24;99298.27;;;8.40;100.00
23899;BME280;20544;50.018;20.010;2023-05-07T08:17:42;99300.03;;;8.32;100.00
23899;BME280;20544;50.018;20.010;2023-05-07T08:20:59;99309.63;;;8.33;100.00
23899;BME280;20544;50.018;20.010;2023-05-07T08:24:16;99313.53;;;8.29;100.00
23899;BME280;20544;50.018;20.010;2023-05-07T08:27:33;99316.70;;;8.32;100.00
23899;BME280;20544;50.018;20.010;2023-05-07T08:30:50;99324.34;;;8.35;100.00
23899;BME280;20544;50.018;20.010;2023-05-07T08:34:12;99328.89;;;8.25;100.00
23899;BME280;20544;50.018;20.010;2023-05-07T08:37:30;99325.41;;;8.24;100.00
23899;BME280;20544;50.018;20.010;2023-05-07T08:40:48;99333.70;;;8.30;100.00
23899;BME280;20544;50.018;20.010;2023-05-07T08:44:05;99342.93;;;8.25;100.00
23899;BME280;20544;50.018;20.010;2023-05-07T08:47:28;99346.70;;;8.23;100.00
23899;BME280;20544;50.018;20.010;2023-05-07T08:50:47;99349.35;;;8.23;100.00
23899;BME280;20544;50.018;20.010;2023-05-07T08:54:04;99346.02;;;8.21;100.00
23899;BME280;20544;50.018;20.010;2023-05-07T08:57:29;99355.33;;;8.25;100.00
23899;BME280;20544;50.018;20.010;2023-05-07T09:00:48;99359.11;;;8.22;100.00
23899;BME280;20544;50.018;20.010;2023-05-07T09:04:06;99354.80;;;8.21;100.00
23899;BME280;20544;50.018;20.010;2023-05-07T09:07:24;99355.94;;;8.19;100.00
23899;BME280;20544;50.018;20.010;2023-05-07T09:10:41;99358.87;;;8.16;100.00
23899;BME280;20544;50.018;20.010;2023-05-07T09:13:59;99355.85;;;8.10;100.00
23899;BME280;20544;50.018;20.010;2023-05-07T09:17:19;99373.13;;;8.05;100.00
23899;BME280;20544;50.018;20.010;2023-05-07T09:20:35;99373.66;;;8.08;100.00
23899;BME280;20544;50.018;20.010;2023-05-07T09:23:54;99372.08;;;8.16;100.00
23899;BME280;20544;50.018;20.010;2023-05-07T09:27:13;99376.23;;;8.18;100.00
23899;BME280;20544;50.018;20.010;2023-05-07T09:30:38;99384.23;;;8.26;100.00
23899;BME280;20544;50.018;20.010;2023-05-07T09:34:04;99389.36;;;8.28;100.00
23899;BME280;20544;50.018;20.010;2023-05-07T09:37:21;99385.53;;;8.22;100.00
23899;BME280;20544;50.018;20.010;2023-05-07T09:40:40;99389.97;;;8.22;100.00
23899;BME280;20544;50.018;20.010;2023-05-07T09:43:59;99395.09;;;8.23;100.00
23899;BME280;20544;50.018;20.010;2023-05-07T09:47:23;99402.90;;;8.25;100.00
23899;BME280;20544;50.018;20.010;2023-05-07T09:50:47;99402.90;;;8.25;100.00
23899;BME280;20544;50.018;20.010;2023-05-07T09:54:06;99409.16;;;8.24;100.00
23899;BME280;20544;50.018;20.010;2023-05-07T09:57:27;99406.36;;;8.25;100.00
23899;BME280;20544;50.018;20.010;2023-05-07T10:00:47;99409.00;;;8.25;100.00
23899;BME280;20544;50.018;20.010;2023-05-07T10:04:07;99413.97;;;8.29;100.00
23899;BME280;20544;50.018;20.010;2023-05-07T10:07:24;99414.28;;;8.25;100.00
23899;BME280;20544;50.018;20.010;2023-05-07T10:10:43;99414.13;;;8.27;100.00
23899;BME280;20544;50.018;20.010;2023-05-07T10:14:02;99416.92;;;8.25;100.00
23899;BME280;20544;50.018;20.010;2023-05-07T10:17:21;99427.95;;;8.21;100.00
23899;BME280;20544;50.018;20.010;2023-05-07T10:20:40;99426.69;;;8.25;100.00
23899;BME280;20544;50.018;20.010;2023-05-07T10:24:03;99429.33;;;8.25;100.00
23899;BME280;20544;50.018;20.010;2023-05-07T10:27:23;99428.31;;;8.26;100.00
23899;BME280;20544;50.018;20.010;2023-05-07T10:30:47;99435.80;;;8.31;100.00
23899;BME280;20544;50.018;20.010;2023-05-07T10:34:13;99433.84;;;8.33;100.00
23899;BME280;20544;50.018;20.010;2023-05-07T10:37:33;99443.04;;;8.29;100.00
23899;BME280;20544;50.018;20.010;2023-05-07T10:40:52;99455.44;;;8.28;100.00
23899;BME280;20544;50.018;20.010;2023-05-07T10:44:09;99458.84;;;8.20;100.00
23899;BME280;20544;50.018;20.010;2023-05-07T10:47:26;99457.23;;;8.09;100.00
23899;BME280;20544;50.018;20.010;2023-05-07T10:50:43;99454.97;;;8.15;100.00
23899;BME280;20544;50.018;20.010;2023-05-07T10:54:22;99458.46;;;8.15;100.00
23899;BME280;20544;50.018;20.010;2023-05-07T10:57:40;99457.48;;;8.16;100.00
23899;BME280;20544;50.018;20.010;2023-05-07T11:01:03;99461.11;;;8.15;100.00
23899;BME280;20544;50.018;20.010;2023-05-07T11:04:22;99465.85;;;8.12;100.00
23899;BME280;20544;50.018;20.010;2023-05-07T11:07:56;99462.52;;;8.09;100.00
23899;BME280;20544;50.018;20.010;2023-05-07T11:11:14;99472.93;;;8.11;100.00
23899;BME280;20544;50.018;20.010;2023-05-07T11:14:48;99470.01;;;8.14;100.00
23899;BME280;20544;50.018;20.010;2023-05-07T11:18:09;99467.95;;;8.08;100.00
23899;BME280;20544;50.018;20.010;2023-05-07T11:21:36;99467.52;;;8.13;100.00
23899;BME280;20544;50.018;20.010;2023-05-07T11:25:09;99463.96;;;8.04;100.00
23899;BME280;20544;50.018;20.010;2023-05-07T11:28:30;99475.88;;;8.08;100.00
23899;BME280;20544;50.018;20.010;2023-05-07T11:31:55;99481.86;;;8.10;100.00
23899;BME280;20544;50.018;20.010;2023-05-07T11:35:23;99477.63;;;8.17;100.00
23899;BME280;20544;50.018;20.010;2023-05-07T11:38:44;99475.52;;;8.21;100.00
23899;BME280;20544;50.018;20.010;2023-05-07T11:42:03;99483.31;;;8.22;100.00
23899;BME280;20544;50.018;20.010;2023-05-07T11:45:24;99474.98;;;8.17;100.00
23899;BME280;20544;50.018;20.010;2023-05-07T11:48:41;99491.15;;;8.14;100.00
23899;BME280;20544;50.018;20.010;2023-05-07T11:51:59;99492.71;;;8.07;100.00
23899;BME280;20544;50.018;20.010;2023-05-07T11:55:17;99491.58;;;8.09;100.00
23899;BME280;20544;50.018;20.010;2023-05-07T11:58:35;99493.41;;;8.09;100.00
23899;BME280;20544;50.018;20.010;2023-05-07T12:01:52;99501.88;;;8.13;100.00
23899;BME280;20544;50.018;20.010;2023-05-07T12:05:11;99505.70;;;8.00;100.00
23899;BME280;20544;50.018;20.010;2023-05-07T12:08:28;99513.03;;;8.06;100.00
23899;BME280;20544;50.018;20.010;2023-05-07T12:11:47;99515.91;;;8.13;100.00
23899;BME280;20544;50.018;20.010;2023-05-07T12:15:06;99509.05;;;8.20;100.00
23899;BME280;20544;50.018;20.010;2023-05-07T12:18:24;99506.09;;;8.23;100.00
23899;BME280;20544;50.018;20.010;2023-05-07T12:21:41;99511.77;;;8.29;100.00
23899;BME280;20544;50.018;20.010;2023-05-07T12:25:00;99515.84;;;8.23;100.00
23899;BME280;20544;50.018;20.010;2023-05-07T12:28:18;99522.42;;;8.19;100.00
23899;BME280;20544;50.018;20.010;2023-05-07T12:31:35;99513.64;;;8.18;100.00
23899;BME280;20544;50.018;20.010;2023-05-07T12:34:53;99522.42;;;8.19;100.00
23899;BME280;20544;50.018;20.010;2023-05-07T12:38:12;99526.19;;;8.16;100.00
23899;BME280;20544;50.018;20.010;2023-05-07T12:41:29;99523.78;;;8.23;100.00
23899;BME280;20544;50.018;20.010;2023-05-07T12:44:48;99534.88;;;8.26;100.00
23899;BME280;20544;50.018;20.010;2023-05-07T12:48:05;99533.81;;;8.19;100.00
23899;BME280;20544;50.018;20.010;2023-05-07T12:51:22;99526.91;;;8.08;100.00
23899;BME280;20544;50.018;20.010;2023-05-07T12:54:40;99526.37;;;8.05;100.00
23899;BME280;20544;50.018;20.010;2023-05-07T12:57:57;99531.80;;;8.03;100.00
23899;BME280;20544;50.018;20.010;2023-05-07T13:01:17;99541.83;;;8.00;100.00
23899;BME280;20544;50.018;20.010;2023-05-07T13:04:35;99537.67;;;7.97;100.00
23899;BME280;20544;50.018;20.010;2023-05-07T13:07:57;99538.64;;;7.96;100.00
23899;BME280;20544;50.018;20.010;2023-05-07T13:11:14;99539.77;;;7.93;100.00
23899;BME280;20544;50.018;20.010;2023-05-07T13:14:32;99545.95;;;7.84;100.00
23899;BME280;20544;50.018;20.010;2023-05-07T13:18:01;99556.12;;;7.79;100.00
23899;BME280;20544;50.018;20.010;2023-05-07T13:21:20;99544.86;;;7.77;100.00
23899;BME280;20544;50.018;20.010;2023-05-07T13:24:37;99551.50;;;7.81;100.00
23899;BME280;20544;50.018;20.010;2023-05-07T13:27:54;99547.85;;;7.92;100.00
23899;BME280;20544;50.018;20.010;2023-05-07T13:31:13;99546.45;;;7.98;100.00
23899;BME280;20544;50.018;20.010;2023-05-07T13:34:30;99549.21;;;7.96;100.00
23899;BME280;20544;50.018;20.010;2023-05-07T13:37:48;99544.09;;;7.94;100.00
23899;BME280;20544;50.018;20.010;2023-05-07T13:41:06;99548.39;;;7.96;100.00
23899;BME280;20544;50.018;20.010;2023-05-07T13:44:26;99567.43;;;7.99;100.00
23899;BME280;20544;50.018;20.010;2023-05-07T13:47:44;99547.58;;;7.95;100.00
23899;BME280;20544;50.018;20.010;2023-05-07T13:51:21;99559.78;;;7.96;100.00
23899;BME280;20544;50.018;20.010;2023-05-07T13:54:38;99563.16;;;7.88;100.00
23899;BME280;20544;50.018;20.010;2023-05-07T13:58:01;99556.36;;;7.86;100.00
23899;BME280;20544;50.018;20.010;2023-05-07T14:01:18;99565.70;;;7.80;100.00
23899;BME280;20544;50.018;20.010;2023-05-07T14:04:35;99556.66;;;7.83;100.00
23899;BME280;20544;50.018;20.010;2023-05-07T14:07:51;99569.99;;;7.81;100.00
23899;BME280;20544;50.018;20.010;2023-05-07T14:11:08;99570.99;;;7.80;100.00
23899;BME280;20544;50.018;20.010;2023-05-07T14:14:24;99570.30;;;7.78;100.00
23899;BME280;20544;50.018;20.010;2023-05-07T14:17:41;99575.97;;;7.83;100.00
23899;BME280;20544;50.018;20.010;2023-05-07T14:21:00;99578.34;;;7.86;100.00
23899;BME280;20544;50.018;20.010;2023-05-07T14:24:19;99578.03;;;7.89;100.00
23899;BME280;20544;50.018;20.010;2023-05-07T14:27:37;99584.14;;;7.90;100.00
23899;BME280;20544;50.018;20.010;2023-05-07T14:30:53;99579.98;;;7.87;100.00
23899;BME280;20544;50.018;20.010;2023-05-07T14:34:10;99583.74;;;7.85;100.00
23899;BME280;20544;50.018;20.010;2023-05-07T14:37:27;99593.77;;;7.81;100.00
23899;BME280;20544;50.018;20.010;2023-05-07T14:40:44;99601.69;;;7.81;100.00
23899;BME280;20544;50.018;20.010;2023-05-07T14:44:01;99600.72;;;7.82;100.00
23899;BME280;20544;50.018;20.010;2023-05-07T14:47:18;99599.05;;;7.81;100.00
23899;BME280;20544;50.018;20.010;2023-05-07T14:50:34;99608.79;;;7.81;100.00
23899;BME280;20544;50.018;20.010;2023-05-07T14:53:53;99607.97;;;7.80;100.00
23899;BME280;20544;50.018;20.010;2023-05-07T14:57:13;99613.92;;;7.82;100.00
23899;BME280;20544;50.018;20.010;2023-05-07T15:00:30;99612.80;;;7.85;100.00
23899;BME280;20544;50.018;20.010;2023-05-07T15:03:47;99619.05;;;7.84;100.00
23899;BME280;20544;50.018;20.010;2023-05-07T15:07:03;99612.41;;;7.80;100.00
23899;BME280;20544;50.018;20.010;2023-05-07T15:10:20;99617.13;;;7.76;100.00
23899;BME280;20544;50.018;20.010;2023-05-07T15:13:36;99617.28;;;7.74;100.00
23899;BME280;20544;50.018;20.010;2023-05-07T15:16:58;99618.55;;;7.70;100.00
23899;BME280;20544;50.018;20.010;2023-05-07T15:20:15;99619.67;;;7.68;100.00
23899;BME280;20544;50.018;20.010;2023-05-07T15:23:32;99615.63;;;7.64;100.00
23899;BME280;20544;50.018;20.010;2023-05-07T15:26:53;99623.00;;;7.60;100.00
23899;BME280;20544;50.018;20.010;2023-05-07T15:30:10;99613.16;;;7.52;100.00
23899;BME280;20544;50.018;20.010;2023-05-07T15:33:29;99622.05;;;7.51;100.00
23899;BME280;20544;50.018;20.010;2023-05-07T15:36:45;99625.81;;;7.39;100.00
23899;BME280;20544;50.018;20.010;2023-05-07T15:40:02;99626.37;;;7.42;100.00
23899;BME280;20544;50.018;20.010;2023-05-07T15:43:20;99623.73;;;7.42;100.00
23899;BME280;20544;50.018;20.010;2023-05-07T15:46:37;99635.55;;;7.38;100.00
23899;BME280;20544;50.018;20.010;2023-05-07T15:49:53;99628.04;;;7.43;100.00
23899;BME280;20544;50.018;20.010;2023-05-07T15:53:10;99635.28;;;7.41;100.00
23899;BME280;20544;50.018;20.010;2023-05-07T15:56:27;99624.84;;;7.40;100.00
23899;BME280;20544;50.018;20.010;2023-05-07T15:59:43;99632.77;;;7.40;100.00
23899;BME280;20544;50.018;20.010;2023-05-07T16:03:00;99632.77;;;7.40;100.00
23899;BME280;20544;50.018;20.010;2023-05-07T16:06:17;99633.47;;;7.42;100.00
23899;BME280;20544;50.018;20.010;2023-05-07T16:09:33;99631.39;;;7.36;100.00
23899;BME280;20544;50.018;20.010;2023-05-07T16:12:50;99636.93;;;7.33;100.00
23899;BME280;20544;50.018;20.010;2023-05-07T16:16:07;99641.23;;;7.34;100.00
23899;BME280;20544;50.018;20.010;2023-05-07T16:19:25;99642.80;;;7.26;100.00
23899;BME280;20544;50.018;20.010;2023-05-07T16:22:42;99648.33;;;7.23;100.00
23899;BME280;20544;50.018;20.010;2023-05-07T16:25:58;99644.73;;;7.24;100.00
23899;BME280;20544;50.018;20.010;2023-05-07T16:29:14;99644.73;;;7.24;100.00
23899;BME280;20544;50.018;20.010;2023-05-07T16:32:31;99646.41;;;7.25;100.00
23899;BME280;20544;50.018;20.010;2023-05-07T16:35:53;99645.55;;;7.25;100.00
23899;BME280;20544;50.018;20.010;2023-05-07T16:39:10;99649.45;;;7.21;100.00
23899;BME280;20544;50.018;20.010;2023-05-07T16:42:26;99643.61;;;7.17;100.00
23899;BME280;20544;50.018;20.010;2023-05-07T16:45:43;99643.05;;;7.23;100.00
23899;BME280;20544;50.018;20.010;2023-05-07T16:49:00;99641.80;;;7.18;100.00
23899;BME280;20544;50.018;20.010;2023-05-07T16:52:17;99649.18;;;7.14;100.00
23899;BME280;20544;50.018;20.010;2023-05-07T16:55:33;99651.94;;;7.12;100.00
23899;BME280;20544;50.018;20.010;2023-05-07T16:58:51;99660.96;;;7.10;100.00
23899;BME280;20544;50.018;20.010;2023-05-07T17:02:08;99652.38;;;7.08;100.00
23899;BME280;20544;50.018;20.010;2023-05-07T17:05:24;99651.66;;;7.06;100.00
23899;BME280;20544;50.018;20.010;2023-05-07T17:08:41;99660.84;;;7.02;100.00
23899;BME280;20544;50.018;20.010;2023-05-07T17:11:59;99664.15;;;7.04;100.00